createdAt,value
2023-04-19T00:02:35.830Z,77.04
2023-04-19T00:05:38.843Z,77.00
2023-04-19T00:08:42.569Z,76.54
2023-04-19T00:11:45.773Z,76.75
2023-04-19T00:14:48.608Z,76.64
2023-04-19T00:17:51.444Z,76.18
2023-04-19T00:20:54.266Z,75.96
2023-04-19T00:23:57.171Z,75.55
2023-04-19T00:27:00.017Z,76.01
2023-04-19T00:30:02.819Z,75.71
2023-04-19T00:33:13.084Z,75.23
2023-04-19T00:36:16.095Z,75.41
2023-04-19T00:39:18.989Z,75.52
2023-04-19T00:42:21.747Z,75.71
2023-04-19T00:45:25.899Z,76.08
2023-04-19T00:48:31.008Z,75.45
2023-04-19T00:51:34.667Z,75.80
2023-04-19T00:54:37.959Z,75.58
2023-04-19T00:57:41.236Z,76.02
2023-04-19T01:00:45.499Z,75.51
2023-04-19T01:03:48.681Z,75.42
2023-04-19T01:06:51.547Z,75.58
2023-04-19T01:09:54.530Z,75.77
2023-04-19T01:12:57.835Z,75.67
2023-04-19T01:16:01.316Z,75.67
2023-04-19T01:19:04.262Z,76.27
2023-04-19T01:22:07.571Z,76.29
2023-04-19T01:25:12.591Z,76.39
2023-04-19T01:28:18.376Z,76.40
2023-04-19T01:31:21.415Z,76.54
2023-04-19T01:34:24.415Z,76.14
2023-04-19T01:37:27.283Z,76.60
2023-04-19T01:40:30.048Z,76.50
2023-04-19T01:43:33.754Z,76.49
2023-04-19T01:46:38.985Z,76.19
2023-04-19T01:49:43.209Z,75.88
2023-04-19T01:52:46.001Z,75.78
2023-04-19T01:55:48.756Z,75.17
2023-04-19T01:58:51.594Z,75.19
2023-04-19T02:01:54.424Z,75.31
2023-04-19T02:04:58.138Z,75.78
2023-04-19T02:08:02.017Z,75.79
2023-04-19T02:11:08.926Z,75.50
2023-04-19T02:14:11.907Z,76.05
2023-04-19T02:17:14.729Z,76.26
2023-04-19T02:20:17.611Z,75.83
2023-04-19T02:23:20.395Z,76.44
2023-04-19T02:26:24.684Z,76.32
2023-04-19T02:29:28.036Z,76.42
2023-04-19T02:32:30.985Z,76.67
2023-04-19T02:35:34.183Z,76.61
2023-04-19T02:38:37.248Z,76.56
2023-04-19T02:41:39.958Z,77.09
2023-04-19T02:44:42.721Z,77.34
2023-04-19T02:47:46.885Z,77.37
2023-04-19T02:50:49.870Z,77.53
2023-04-19T02:53:53.533Z,77.47
2023-04-19T02:56:57.750Z,77.41
2023-04-19T03:00:00.764Z,77.20
2023-04-19T03:03:07.644Z,77.21
2023-04-19T03:06:10.697Z,76.76
2023-04-19T03:09:13.809Z,77.33
2023-04-19T03:12:17.015Z,77.50
2023-04-19T03:15:27.721Z,78.14
2023-04-19T03:18:30.928Z,78.05
2023-04-19T03:21:34.378Z,78.04
2023-04-19T03:24:38.227Z,78.40
2023-04-19T03:28:01.437Z,78.62
2023-04-19T03:31:24.177Z,78.67
2023-04-19T03:34:29.339Z,78.72
2023-04-19T03:37:32.104Z,78.33
2023-04-19T03:40:38.638Z,78.82
2023-04-19T03:43:42.667Z,79.35
2023-04-19T03:46:46.878Z,79.94
2023-04-19T03:49:51.864Z,80.25
2023-04-19T03:52:54.995Z,79.84
2023-04-19T03:55:57.741Z,80.11
2023-04-19T03:59:01.215Z,79.80
2023-04-19T04:02:07.141Z,80.10
2023-04-19T04:05:10.162Z,79.85
2023-04-19T04:08:14.231Z,80.10
2023-04-19T04:11:17.305Z,80.27
2023-04-19T04:14:27.245Z,80.08
2023-04-19T04:17:30.195Z,80.32
2023-04-19T04:20:33.271Z,80.29
2023-04-19T04:23:42.167Z,80.21
2023-04-19T04:26:51.659Z,79.99
2023-04-19T04:30:05.182Z,79.80
2023-04-19T04:33:08.761Z,79.71
2023-04-19T04:36:12.140Z,79.82
2023-04-19T04:39:16.717Z,79.29
2023-04-19T04:42:21.743Z,79.48
2023-04-19T04:45:24.516Z,79.05
2023-04-19T04:48:27.372Z,78.40
2023-04-19T04:51:30.137Z,78.15
2023-04-19T04:54:33.959Z,77.81
2023-04-19T04:57:37.368Z,77.90
2023-04-19T05:00:41.702Z,77.80
2023-04-19T05:03:46.230Z,77.46
2023-04-19T05:06:53.988Z,77.54
2023-04-19T05:10:01.072Z,77.30
2023-04-19T05:13:10.620Z,77.34
2023-04-19T05:16:14.599Z,76.93
2023-04-19T05:19:20.796Z,76.38
2023-04-19T05:22:29.941Z,75.99
2023-04-19T05:25:33.982Z,76.08
2023-04-19T05:28:37.359Z,75.86
2023-04-19T05:31:49.161Z,74.90
2023-04-19T05:34:59.618Z,74.21
2023-04-19T05:38:02.995Z,74.32
2023-04-19T05:41:06.073Z,73.32
2023-04-19T05:44:08.914Z,73.61
2023-04-19T05:47:12.424Z,72.75
2023-04-19T05:50:48.063Z,72.56
2023-04-19T05:54:05.487Z,71.24
2023-04-19T05:57:08.576Z,70.27
2023-04-19T06:00:11.880Z,69.45
2023-04-19T06:03:27.833Z,67.44
2023-04-19T06:06:34.460Z,68.46
2023-04-19T06:09:37.222Z,67.96
2023-04-19T06:12:40.082Z,67.85
2023-04-19T06:15:43.168Z,66.34
2023-04-19T06:18:46.108Z,66.24
2023-04-19T06:21:49.528Z,64.55
2023-04-19T06:24:52.422Z,64.94
2023-04-19T06:27:55.182Z,63.45
2023-04-19T06:30:58.977Z,62.40
2023-04-19T06:34:02.242Z,62.81
2023-04-19T06:37:05.276Z,62.81
2023-04-19T06:40:08.793Z,61.26
2023-04-19T06:43:11.615Z,62.11
2023-04-19T06:46:14.621Z,61.29
2023-04-19T06:49:17.402Z,61.80
2023-04-19T06:52:20.655Z,61.40
2023-04-19T06:55:23.536Z,61.94
2023-04-19T06:58:27.318Z,60.77
2023-04-19T07:01:30.108Z,60.59
2023-04-19T07:04:33.098Z,61.41
2023-04-19T07:07:38.277Z,61.49
2023-04-19T07:10:43.278Z,60.82
2023-04-19T07:13:46.307Z,58.98
2023-04-19T07:16:50.870Z,59.41
2023-04-19T07:19:54.382Z,60.14
2023-04-19T07:22:58.963Z,59.08
2023-04-19T07:26:02.061Z,58.67
2023-04-19T07:29:05.036Z,58.72
2023-04-19T07:32:07.953Z,58.97
2023-04-19T07:35:10.827Z,57.33
2023-04-19T07:38:13.635Z,57.11
2023-04-19T07:41:17.331Z,56.08
2023-04-19T07:44:25.612Z,56.97
2023-04-19T07:47:28.495Z,55.79
2023-04-19T07:50:31.469Z,54.17
2023-04-19T07:53:34.357Z,54.32
2023-04-19T07:56:37.200Z,53.01
2023-04-19T07:59:40.160Z,52.16
2023-04-19T08:02:47.161Z,54.23
2023-04-19T08:05:50.113Z,54.44
2023-04-19T08:08:53.092Z,54.44
2023-04-19T08:11:57.828Z,54.57
2023-04-19T08:15:09.878Z,53.99
2023-04-19T08:18:23.128Z,55.09
2023-04-19T08:21:34.656Z,53.55
2023-04-19T08:24:44.475Z,53.83
2023-04-19T08:27:47.274Z,53.39
2023-04-19T08:30:50.500Z,53.20
2023-04-19T08:33:53.478Z,51.21
2023-04-19T08:37:03.891Z,50.74
2023-04-19T08:40:08.694Z,50.70
2023-04-19T08:43:11.487Z,52.12
2023-04-19T08:46:14.556Z,49.53
2023-04-19T08:49:20.324Z,50.61
2023-04-19T08:52:25.207Z,51.20
2023-04-19T08:55:30.251Z,50.90
2023-04-19T09:01:40.025Z,50.11
2023-04-19T09:04:43.693Z,51.12
2023-04-19T09:07:47.206Z,49.80
2023-04-19T09:10:55.111Z,47.11
2023-04-19T09:14:11.057Z,47.32
2023-04-19T09:17:16.847Z,47.39
2023-04-19T09:20:44.951Z,44.61
2023-04-19T09:23:48.620Z,45.78
2023-04-19T09:26:55.716Z,45.56
2023-04-19T09:30:02.982Z,45.07
2023-04-19T09:33:11.373Z,48.01
2023-04-19T09:36:30.875Z,45.97
2023-04-19T09:39:34.005Z,47.25
2023-04-19T09:45:52.687Z,46.33
2023-04-19T09:48:57.639Z,45.40
2023-04-19T09:52:01.598Z,44.43
2023-04-19T09:55:17.842Z,44.36
2023-04-19T09:58:29.371Z,45.47
2023-04-19T10:01:45.891Z,43.73
2023-04-19T10:05:03.335Z,43.43
2023-04-19T10:08:13.721Z,44.80
2023-04-19T10:11:17.603Z,44.81
2023-04-19T10:14:24.828Z,43.24
2023-04-19T10:17:27.974Z,44.75
2023-04-19T10:20:37.817Z,41.09
2023-04-19T10:23:40.903Z,39.90
2023-04-19T10:27:07.866Z,40.29
2023-04-19T10:30:24.181Z,39.92
2023-04-19T10:33:28.301Z,39.93
2023-04-19T10:36:31.214Z,38.86
2023-04-19T10:39:43.083Z,40.40
2023-04-19T10:43:10.569Z,41.08
2023-04-19T10:46:37.236Z,41.62
2023-04-19T10:49:51.202Z,40.14
2023-04-19T10:52:54.035Z,42.00
2023-04-19T10:55:57.139Z,40.68
2023-04-19T10:59:00.533Z,38.46
2023-04-19T11:02:25.279Z,38.44
2023-04-19T11:05:28.174Z,40.10
2023-04-19T11:08:31.231Z,40.80
2023-04-19T11:11:37.567Z,41.98
2023-04-19T11:14:42.924Z,42.35
2023-04-19T11:18:08.906Z,42.90
2023-04-19T11:21:15.160Z,44.53
2023-04-19T11:24:19.152Z,47.41
2023-04-19T11:27:22.084Z,48.65
2023-04-19T11:30:31.365Z,48.16
2023-04-19T11:33:34.882Z,48.82
2023-04-19T11:36:47.978Z,48.50
2023-04-19T11:39:50.949Z,49.63
2023-04-19T11:43:00.620Z,50.82
2023-04-19T11:46:10.754Z,50.73
2023-04-19T11:49:27.424Z,51.12
2023-04-19T11:52:30.248Z,50.49
2023-04-19T11:55:33.637Z,51.84
2023-04-19T11:58:44.659Z,51.63
2023-04-19T12:01:47.986Z,52.48
2023-04-19T12:04:52.195Z,52.70
2023-04-19T12:08:06.830Z,53.13
2023-04-19T12:11:09.910Z,52.04
2023-04-19T12:14:15.252Z,51.82
2023-04-19T12:17:18.360Z,52.06
2023-04-19T12:20:35.560Z,50.17
2023-04-19T12:23:38.304Z,50.14
2023-04-19T12:26:57.517Z,49.32
2023-04-19T12:30:00.658Z,48.21
2023-04-19T12:33:03.767Z,47.51
2023-04-19T12:36:06.806Z,45.80
2023-04-19T12:39:09.968Z,46.24
2023-04-19T12:42:13.417Z,43.79
2023-04-19T12:45:16.559Z,42.29
2023-04-19T12:48:19.421Z,42.67
2023-04-19T12:51:22.181Z,42.40
2023-04-19T12:54:25.104Z,43.77
2023-04-19T12:57:28.342Z,45.85
2023-04-19T13:00:31.128Z,46.89
2023-04-19T13:03:36.697Z,47.46
2023-04-19T13:06:40.324Z,45.87
2023-04-19T13:09:43.134Z,46.60
2023-04-19T13:12:45.830Z,46.64
2023-04-19T13:15:48.649Z,46.30
2023-04-19T13:18:52.780Z,46.70
2023-04-19T13:21:55.830Z,44.69
2023-04-19T13:24:58.759Z,43.85
2023-04-19T13:28:01.541Z,43.65
2023-04-19T13:31:05.795Z,41.59
2023-04-19T13:34:08.563Z,42.55
2023-04-19T13:37:11.533Z,42.67
2023-04-19T13:40:19.445Z,41.38
2023-04-19T13:43:22.852Z,41.36
2023-04-19T13:46:25.736Z,40.65
2023-04-19T13:49:28.655Z,40.47
2023-04-19T13:52:31.417Z,40.59
2023-04-19T13:55:34.340Z,39.83
2023-04-19T13:58:37.678Z,41.03
2023-04-19T14:01:41.317Z,39.56
2023-04-19T14:04:44.134Z,41.05
2023-04-19T14:07:47.143Z,40.64
2023-04-19T14:10:50.934Z,40.21
2023-04-19T14:13:54.336Z,39.70
2023-04-19T14:16:57.033Z,41.62
2023-04-19T14:19:59.735Z,45.66
2023-04-19T14:23:02.553Z,47.33
2023-04-19T14:26:05.462Z,47.17
2023-04-19T14:29:08.448Z,49.07
2023-04-19T14:32:25.177Z,48.79
2023-04-19T14:35:29.178Z,46.47
2023-04-19T14:38:32.717Z,48.51
2023-04-19T14:41:36.023Z,48.14
2023-04-19T14:44:38.689Z,47.61
2023-04-19T14:47:41.525Z,46.44
2023-04-19T14:50:44.368Z,47.07
2023-04-19T14:53:47.431Z,46.96
2023-04-19T14:56:50.393Z,44.11
2023-04-19T15:00:01.325Z,42.99
2023-04-19T15:03:04.966Z,43.21
2023-04-19T15:06:08.296Z,43.84
2023-04-19T15:09:11.899Z,44.32
2023-04-19T15:12:15.074Z,44.84
2023-04-19T15:15:17.863Z,44.01
2023-04-19T15:18:20.995Z,44.93
2023-04-19T15:21:25.716Z,46.13
2023-04-19T15:24:28.568Z,45.96
2023-04-19T15:27:31.683Z,44.90
2023-04-19T15:30:34.545Z,43.00
2023-04-19T15:33:37.901Z,44.94
2023-04-19T15:36:41.127Z,44.39
2023-04-19T15:39:44.103Z,43.82
2023-04-19T15:42:46.877Z,44.18
2023-04-19T15:45:49.706Z,44.63
2023-04-19T15:48:52.540Z,44.44
2023-04-19T15:51:55.817Z,43.98
2023-04-19T15:54:58.573Z,44.51
2023-04-19T15:58:01.437Z,46.04
2023-04-19T16:01:04.219Z,46.06
2023-04-19T16:04:07.390Z,47.21
2023-04-19T16:07:10.333Z,45.52
2023-04-19T16:10:13.759Z,46.60
2023-04-19T16:13:17.095Z,48.06
2023-04-19T16:16:19.851Z,45.97
2023-04-19T16:19:23.489Z,46.00
2023-04-19T16:22:26.444Z,46.54
2023-04-19T16:25:32.713Z,46.57
2023-04-19T16:28:35.995Z,45.97
2023-04-19T16:31:38.783Z,46.01
2023-04-19T16:34:41.703Z,46.64
2023-04-19T16:37:44.551Z,48.71
2023-04-19T16:40:48.758Z,52.27
2023-04-19T16:43:51.727Z,53.75
2023-04-19T16:46:54.627Z,55.36
2023-04-19T16:49:58.501Z,56.41
2023-04-19T16:53:01.427Z,58.12
2023-04-19T16:56:04.686Z,60.14
2023-04-19T16:59:07.557Z,60.18
2023-04-19T17:02:11.171Z,60.90
2023-04-19T17:05:16.203Z,61.91
2023-04-19T17:08:19.034Z,61.86
2023-04-19T17:11:21.769Z,62.16
2023-04-19T17:14:24.496Z,62.58
2023-04-19T17:17:27.516Z,63.40
2023-04-19T17:20:30.318Z,63.87
2023-04-19T17:23:33.163Z,63.80
2023-04-19T17:26:36.007Z,64.43
2023-04-19T17:29:38.772Z,64.77
2023-04-19T17:32:42.107Z,65.30
2023-04-19T17:35:45.050Z,65.84
2023-04-19T17:38:48.305Z,65.73
2023-04-19T17:41:51.496Z,65.74
2023-04-19T17:44:54.527Z,66.85
2023-04-19T17:47:57.422Z,67.01
2023-04-19T17:51:00.603Z,66.59
2023-04-19T17:54:03.906Z,67.29
2023-04-19T17:57:07.050Z,67.86
2023-04-19T18:00:15.902Z,68.20
2023-04-19T18:03:19.211Z,68.56
2023-04-19T18:06:23.088Z,68.72
2023-04-19T18:09:27.541Z,68.78
2023-04-19T18:12:30.680Z,68.44
2023-04-19T18:15:33.441Z,69.22
2023-04-19T18:18:36.805Z,69.39
2023-04-19T18:21:39.869Z,69.25
2023-04-19T18:24:45.288Z,68.97
2023-04-19T18:27:49.388Z,69.12
2023-04-19T18:30:52.734Z,69.33
2023-04-19T18:33:55.882Z,70.05
2023-04-19T18:37:00.932Z,70.39
2023-04-19T18:40:07.561Z,71.01
2023-04-19T18:43:11.128Z,71.67
2023-04-19T18:46:15.884Z,72.14
2023-04-19T18:49:18.993Z,72.04
2023-04-19T18:52:21.850Z,72.87
2023-04-19T18:55:26.663Z,73.39
2023-04-19T18:58:29.730Z,73.78
2023-04-19T19:01:33.764Z,73.66
2023-04-19T19:04:51.213Z,73.36
2023-04-19T19:08:04.321Z,73.50
2023-04-19T19:11:32.987Z,73.57
2023-04-19T19:14:35.695Z,73.48
2023-04-19T19:17:38.941Z,73.23
2023-04-19T19:20:42.182Z,73.27
2023-04-19T19:23:45.547Z,73.79
2023-04-19T19:26:49.002Z,74.00
2023-04-19T19:29:52.257Z,74.44
2023-04-19T19:32:55.509Z,74.66
2023-04-19T19:35:59.275Z,74.73
2023-04-19T19:39:02.597Z,74.49
2023-04-19T19:42:06.798Z,74.49
2023-04-19T19:45:10.550Z,74.63
2023-04-19T19:48:13.626Z,74.82
2023-04-19T19:51:42.223Z,75.29
2023-04-19T19:54:39.425Z,76.12
2023-04-19T20:03:56.402Z,77.65
2023-04-19T20:10:10.598Z,78.13
2023-04-19T20:13:13.509Z,77.61
2023-04-19T20:16:18.837Z,78.03
2023-04-19T20:19:21.945Z,78.14
2023-04-19T20:22:25.014Z,78.38
2023-04-19T20:25:27.852Z,78.08
2023-04-19T20:28:31.010Z,77.90
2023-04-19T20:31:34.035Z,78.12
2023-04-19T20:34:37.877Z,78.37
2023-04-19T20:37:40.897Z,78.70
2023-04-19T20:40:44.249Z,78.27
2023-04-19T20:43:47.885Z,78.33
2023-04-19T20:46:52.265Z,78.92
2023-04-19T20:49:55.615Z,78.70
2023-04-19T20:52:58.553Z,78.49
2023-04-19T20:56:02.939Z,78.28
2023-04-19T20:59:05.932Z,78.24
2023-04-19T21:02:09.020Z,78.99
2023-04-19T21:05:12.069Z,79.27
2023-04-19T21:08:16.234Z,79.64
2023-04-19T21:11:19.124Z,79.44
2023-04-19T21:14:21.879Z,79.64
2023-04-19T21:17:24.840Z,79.71
2023-04-19T21:20:27.741Z,79.08
2023-04-19T21:23:30.483Z,78.57
2023-04-19T21:26:33.399Z,78.71
2023-04-19T21:29:36.109Z,78.71
2023-04-19T21:32:38.997Z,78.28
2023-04-19T21:35:41.716Z,78.77
2023-04-19T21:38:44.644Z,78.40
2023-04-19T21:41:47.617Z,78.73
2023-04-19T21:44:50.333Z,78.74
2023-04-19T21:47:53.102Z,78.78
2023-04-19T21:50:55.882Z,78.69
2023-04-19T21:53:59.050Z,78.14
2023-04-19T21:57:02.154Z,77.72
2023-04-19T22:00:06.899Z,78.02
2023-04-19T22:03:09.809Z,78.06
2023-04-19T22:06:14.029Z,77.30
2023-04-19T22:09:16.875Z,76.74
2023-04-19T22:12:19.865Z,76.05
2023-04-19T22:15:23.388Z,75.78
2023-04-19T22:18:26.188Z,75.87
2023-04-19T22:21:29.023Z,76.14
2023-04-19T22:24:31.704Z,76.68
2023-04-19T22:27:34.460Z,76.18
2023-04-19T22:30:37.232Z,76.07
2023-04-19T22:33:39.942Z,75.99
2023-04-19T22:36:42.757Z,76.48
2023-04-19T22:39:45.767Z,76.86
2023-04-19T22:42:48.976Z,77.06
2023-04-19T22:45:51.770Z,76.88
2023-04-19T22:48:56.210Z,76.43
2023-04-19T22:51:59.885Z,76.01
2023-04-19T22:55:02.740Z,76.43
2023-04-19T22:58:05.741Z,76.38
2023-04-19T23:01:08.471Z,76.55
2023-04-19T23:04:14.328Z,76.32
2023-04-19T23:07:20.070Z,76.19
2023-04-19T23:10:24.135Z,75.85
2023-04-19T23:13:26.952Z,76.00
2023-04-19T23:16:29.967Z,76.47
2023-04-19T23:19:32.698Z,76.81
2023-04-19T23:22:35.810Z,77.27
2023-04-19T23:25:38.831Z,77.19
2023-04-19T23:28:41.636Z,76.91
2023-04-19T23:31:44.385Z,77.48
2023-04-19T23:34:47.255Z,77.27
2023-04-19T23:37:50.067Z,77.73
2023-04-19T23:40:52.914Z,77.62
2023-04-19T23:43:56.151Z,77.67
2023-04-19T23:46:59.283Z,78.20
2023-04-19T23:50:02.136Z,78.30
2023-04-19T23:53:05.702Z,78.07
2023-04-19T23:56:08.795Z,77.49
2023-04-19T23:59:11.586Z,77.05
